Time;durP1;ratioP1;P1;durP2;ratioP2;P2;SDS_P1;SDS_P2;PMS_P1;PMS_P2;Temp;Humidity;BMP_temperature;BMP_pressure;BME280_temperature;BME280_humidity;BME280_pressure;Samples;Min_cycle;Max_cycle;Signal;HPM_P1;HPM_P2
2021/04/02 00:01:47;;;;;;;9.27;5.00;;;;;;;14.60;46.92;98089.47;8249111;28;20253;-65
2021/04/02 00:05:50;;;;;;;9.37;5.20;;;;;;;14.85;46.14;98088.03;8268384;28;20205;-66
2021/04/02 00:09:52;;;;;;;10.93;5.60;;;;;;;14.83;46.18;98090.72;8268205;28;20212;-66
2021/04/02 00:13:55;;;;;;;10.73;4.50;;;;;;;14.70;46.46;98092.38;8267881;28;20205;-65
2021/04/02 00:17:56;;;;;;;7.20;4.57;;;;;;;14.73;46.48;98100.00;8268163;28;20210;-66
2021/04/02 00:21:58;;;;;;;9.27;4.90;;;;;;;14.66;46.63;98094.31;8267634;28;20233;-66
2021/04/02 00:26:01;;;;;;;8.67;5.10;;;;;;;14.55;46.91;98086.25;8267750;28;20312;-66
2021/04/02 00:30:11;;;;;;;10.83;5.50;;;;;;;14.69;46.26;98082.84;8267827;28;20202;-66
2021/04/02 00:34:12;;;;;;;8.50;5.30;;;;;;;14.76;46.14;98092.00;8267650;28;20209;-66
2021/04/02 00:38:19;;;;;;;9.17;5.07;;;;;;;14.70;46.10;98081.94;8267751;28;20603;-66
2021/04/02 00:42:23;;;;;;;9.10;5.40;;;;;;;14.47;46.69;98073.69;8266764;28;20230;-66
2021/04/02 00:46:24;;;;;;;12.03;6.03;;;;;;;14.30;46.97;98070.34;8266938;28;20206;-66
2021/04/02 00:50:34;;;;;;;12.13;5.30;;;;;;;14.45;46.57;98072.94;8266752;28;20206;-65
2021/04/02 00:54:35;;;;;;;12.60;5.40;;;;;;;14.48;46.48;98070.13;8266086;28;20626;-66
2021/04/02 00:58:39;;;;;;;9.53;5.30;;;;;;;14.47;46.11;98078.06;8267411;28;20213;-66
2021/04/02 01:02:41;;;;;;;12.03;5.30;;;;;;;14.39;46.04;98078.50;8266628;28;20253;-66
2021/04/02 01:06:43;;;;;;;10.57;5.63;;;;;;;14.22;46.28;98074.25;8266201;28;20205;-66
2021/04/02 01:10:46;;;;;;;9.00;5.47;;;;;;;14.28;46.01;98075.69;8266531;28;20198;-65
2021/04/02 01:14:48;;;;;;;9.57;5.03;;;;;;;14.21;45.96;98083.00;8265709;28;20206;-65
2021/04/02 01:18:53;;;;;;;11.03;5.50;;;;;;;14.04;46.31;98083.94;8265973;28;20201;-65
2021/04/02 01:22:57;;;;;;;11.67;6.00;;;;;;;13.99;46.21;98088.59;8265583;28;20229;-66
2021/04/02 01:27:08;;;;;;;10.07;5.73;;;;;;;14.17;45.70;98083.28;8265700;28;20240;-66
2021/04/02 01:31:12;;;;;;;8.90;6.00;;;;;;;14.04;46.03;98096.97;8265464;28;20206;-66
2021/04/02 01:35:16;;;;;;;11.53;6.30;;;;;;;14.07;45.61;98101.19;8265558;28;20681;-66
2021/04/02 01:39:19;;;;;;;9.47;6.00;;;;;;;13.97;45.69;98097.41;8265580;28;20209;-65
2021/04/02 01:43:26;;;;;;;10.77;6.10;;;;;;;13.94;45.66;98095.00;8265334;28;20233;-65
2021/04/02 01:47:28;;;;;;;8.60;6.20;;;;;;;13.87;45.84;98092.69;8265323;28;20206;-66
2021/04/02 01:51:32;;;;;;;9.13;6.30;;;;;;;13.86;45.75;98098.03;8265102;28;20517;-66
2021/04/02 01:55:34;;;;;;;13.17;7.17;;;;;;;13.77;45.69;98109.75;8264593;28;20341;-66
2021/04/02 01:59:36;;;;;;;10.97;6.53;;;;;;;14.01;45.34;98106.72;8253223;28;20213;-65
2021/04/02 02:03:40;;;;;;;12.33;6.70;;;;;;;13.87;45.25;98103.13;8257798;28;20260;-67
2021/04/02 02:07:43;;;;;;;13.30;6.87;;;;;;;13.78;45.68;98116.63;8250270;28;20201;-66
2021/04/02 02:11:46;;;;;;;8.50;6.67;;;;;;;13.56;45.99;98116.16;8247764;28;20566;-66
2021/04/02 02:15:48;;;;;;;8.43;6.83;;;;;;;13.79;45.48;98107.09;8232648;28;20538;-66
2021/04/02 02:19:51;;;;;;;12.33;6.73;;;;;;;13.76;45.33;98121.09;8232150;28;20210;-66
2021/04/02 02:23:55;;;;;;;11.67;7.23;;;;;;;13.59;45.70;98126.38;8231958;28;20337;-66
2021/04/02 02:27:57;;;;;;;12.07;7.57;;;;;;;13.32;46.33;98121.72;8233126;28;20490;-66
2021/04/02 02:31:59;;;;;;;11.40;8.10;;;;;;;13.23;46.32;98115.25;8232400;28;20207;-66
2021/04/02 02:36:03;;;;;;;14.10;8.17;;;;;;;13.19;46.31;98128.47;8232250;28;20222;-66
2021/04/02 02:40:05;;;;;;;12.37;8.53;;;;;;;13.09;46.44;98122.91;8231874;28;20206;-66
2021/04/02 02:44:08;;;;;;;11.40;8.20;;;;;;;13.10;46.50;98122.84;8232389;28;20230;-66
2021/04/02 02:48:10;;;;;;;11.30;8.30;;;;;;;13.08;46.26;98118.66;8232157;28;20199;-66
2021/04/02 02:52:14;;;;;;;10.67;8.17;;;;;;;13.28;44.92;98125.38;8231676;28;20203;-66
2021/04/02 02:56:17;;;;;;;9.47;8.20;;;;;;;13.29;44.42;98124.47;8231694;28;20234;-66
2021/04/02 03:00:21;;;;;;;13.03;8.20;;;;;;;12.94;44.80;98116.72;8231240;28;20202;-66
2021/04/02 03:04:23;;;;;;;11.33;8.37;;;;;;;13.04;44.41;98119.69;8263910;28;20229;-66
2021/04/02 03:08:28;;;;;;;11.07;8.17;;;;;;;13.07;44.20;98122.16;8263537;28;20553;-66
2021/04/02 03:12:32;;;;;;;11.53;8.47;;;;;;;13.14;43.84;98123.50;8263512;28;20237;-66
2021/04/02 03:16:40;;;;;;;12.70;8.10;;;;;;;13.03;44.28;98121.47;8266114;28;20232;-66
2021/04/02 03:20:49;;;;;;;10.23;8.27;;;;;;;13.00;44.30;98121.59;8269799;28;20355;-66
2021/04/02 03:24:54;;;;;;;15.87;8.80;;;;;;;12.97;44.49;98128.75;8269049;28;20339;-66
2021/04/02 03:28:56;;;;;;;9.60;8.27;;;;;;;12.80;44.77;98121.81;8269419;28;20206;-66
2021/04/02 03:33:03;;;;;;;10.30;7.97;;;;;;;12.65;44.91;98124.25;8269034;28;20316;-66
2021/04/02 03:37:08;;;;;;;9.07;7.87;;;;;;;12.62;44.85;98127.03;8269034;28;20577;-66
2021/04/02 03:41:13;;;;;;;10.60;7.67;;;;;;;12.89;44.68;98135.19;8268329;28;20229;-66
2021/04/02 03:45:15;;;;;;;9.17;7.87;;;;;;;12.63;44.88;98136.50;8268462;28;20229;-66
2021/04/02 03:49:22;;;;;;;8.90;7.17;;;;;;;12.57;44.43;98139.41;8268561;28;20202;-66
2021/04/02 03:53:25;;;;;;;8.87;7.07;;;;;;;12.61;43.70;98143.53;8268515;28;20320;-66
2021/04/02 03:57:29;;;;;;;8.70;7.10;;;;;;;12.65;43.23;98137.25;8268010;28;20217;-66
2021/04/02 04:01:33;;;;;;;9.90;6.63;;;;;;;12.39;43.67;98150.69;8268152;28;20213;-66
2021/04/02 04:05:38;;;;;;;8.73;6.43;;;;;;;12.51;43.00;98143.13;8267147;28;20206;-66
2021/04/02 04:09:40;;;;;;;10.47;6.20;;;;;;;12.31;42.98;98149.28;8268207;28;20201;-66
2021/04/02 04:13:46;;;;;;;7.67;5.90;;;;;;;12.18;43.58;98144.78;8266167;28;20233;-66
2021/04/02 04:17:49;;;;;;;6.40;5.80;;;;;;;12.27;43.00;98152.97;8261807;28;20203;-66
2021/04/02 04:21:53;;;;;;;7.03;5.60;;;;;;;12.37;42.60;98158.53;8267218;28;20230;-66
2021/04/02 04:25:57;;;;;;;9.10;5.63;;;;;;;12.25;42.65;98165.19;8267430;28;20242;-66
2021/04/02 04:29:59;;;;;;;6.00;5.20;;;;;;;12.26;42.53;98164.28;8267753;28;20625;-66
2021/04/02 04:34:02;;;;;;;7.40;5.50;;;;;;;12.23;43.01;98174.78;8267893;28;20237;-66
2021/04/02 04:38:04;;;;;;;6.43;5.57;;;;;;;12.11;42.75;98170.19;8267635;28;20205;-66
2021/04/02 04:42:08;;;;;;;7.60;4.83;;;;;;;11.89;43.53;98171.19;8266908;28;20230;-66
2021/04/02 04:46:11;;;;;;;5.30;4.80;;;;;;;12.10;43.08;98173.69;8267259;28;20221;-66
2021/04/02 04:50:14;;;;;;;6.17;4.57;;;;;;;12.15;43.44;98170.88;8266569;28;20198;-66
2021/04/02 04:54:18;;;;;;;6.27;4.33;;;;;;;12.15;43.03;98170.88;8267073;28;20253;-66
2021/04/02 04:58:21;;;;;;;5.17;4.23;;;;;;;11.96;43.40;98166.56;8266566;28;20202;-66
2021/04/02 05:02:24;;;;;;;4.63;4.17;;;;;;;12.15;42.97;98182.13;8265978;28;20230;-66
2021/04/02 05:06:27;;;;;;;4.40;4.00;;;;;;;12.27;42.76;98181.53;8264441;28;20265;-66
2021/04/02 05:10:30;;;;;;;4.63;4.10;;;;;;;12.07;42.95;98177.28;8263391;28;20205;-66
2021/04/02 05:14:32;;;;;;;4.47;4.00;;;;;;;12.10;42.98;98184.91;8261554;28;20220;-66
2021/04/02 05:18:35;;;;;;;4.97;4.20;;;;;;;12.15;43.12;98189.91;8262746;28;20217;-66
2021/04/02 05:22:37;;;;;;;6.03;3.90;;;;;;;11.93;43.19;98182.28;8263114;28;20237;-66
2021/04/02 05:26:39;;;;;;;4.30;3.80;;;;;;;12.22;42.69;98191.31;8263181;28;20686;-66
2021/04/02 05:30:42;;;;;;;4.70;3.87;;;;;;;12.32;42.66;98200.31;8262954;28;20237;-66
2021/04/02 05:34:44;;;;;;;3.77;3.47;;;;;;;12.47;42.02;98200.50;8249000;28;20206;-66
2021/04/02 05:38:46;;;;;;;5.90;3.70;;;;;;;12.35;42.35;98199.31;8232831;28;20215;-66
2021/04/02 05:42:51;;;;;;;4.03;3.50;;;;;;;12.51;42.17;98196.84;8233041;28;20246;-66
2021/04/02 05:46:53;;;;;;;4.03;3.30;;;;;;;12.36;42.00;98201.03;8236600;28;20197;-67
2021/04/02 05:50:56;;;;;;;3.60;3.30;;;;;;;12.52;42.03;98199.34;8245850;28;20195;-67
2021/04/02 05:55:00;;;;;;;4.77;3.10;;;;;;;12.38;41.82;98203.56;8232862;28;20232;-67
2021/04/02 05:59:02;;;;;;;9.97;3.40;;;;;;;12.61;41.68;98202.44;8232422;28;20229;-67
2021/04/02 06:03:05;;;;;;;5.93;3.30;;;;;;;13.20;40.45;98210.78;8253433;28;20225;-67
2021/04/02 06:07:08;;;;;;;5.33;3.43;;;;;;;12.66;41.43;98209.09;8252632;28;20201;-67
2021/04/02 06:11:10;;;;;;;3.50;2.80;;;;;;;12.56;41.83;98217.41;8240877;28;20198;-67
2021/04/02 06:15:14;;;;;;;3.60;3.07;;;;;;;12.68;41.85;98216.81;8247550;28;20297;-65
2021/04/02 06:19:15;;;;;;;4.23;3.30;;;;;;;12.50;42.11;98223.72;8237428;28;20202;-65
2021/04/02 06:23:23;;;;;;;4.57;2.90;;;;;;;12.51;41.91;98228.03;8231387;28;20326;-65
2021/04/02 06:27:29;;;;;;;3.47;3.00;;;;;;;12.66;42.01;98229.03;8232252;28;20587;-65
2021/04/02 06:31:35;;;;;;;2.90;2.60;;;;;;;12.63;41.45;98227.41;8242035;28;20222;-65
2021/04/02 06:35:41;;;;;;;2.77;2.47;;;;;;;12.91;41.39;98231.28;8247425;28;20217;-65
2021/04/02 06:39:50;;;;;;;2.77;2.50;;;;;;;13.07;40.64;98228.75;8247550;28;20202;-65
2021/04/02 06:43:55;;;;;;;3.10;2.60;;;;;;;13.19;40.01;98238.50;8241948;28;20234;-65
2021/04/02 06:48:14;;;;;;;2.90;2.60;;;;;;;12.98;41.28;98245.63;8231771;28;20214;-65
2021/04/02 06:52:15;;;;;;;2.97;2.50;;;;;;;12.81;41.83;98243.03;8240395;28;20191;-65
2021/04/02 06:56:20;;;;;;;2.90;2.70;;;;;;;12.64;41.66;98243.84;8237972;28;20211;-65
2021/04/02 07:00:23;;;;;;;2.90;2.70;;;;;;;12.85;41.40;98244.56;8237779;28;20214;-65
2021/04/02 07:04:26;;;;;;;3.20;2.90;;;;;;;12.95;41.37;98250.16;8257459;28;20666;-65
2021/04/02 07:08:28;;;;;;;3.53;2.50;;;;;;;12.79;42.23;98252.66;8250174;28;20277;-65
2021/04/02 07:12:33;;;;;;;2.70;2.50;;;;;;;12.45;42.33;98246.47;8253333;28;20206;-65
2021/04/02 07:16:35;;;;;;;2.90;2.70;;;;;;;12.61;42.08;98250.03;8259472;28;20198;-65
2021/04/02 07:20:37;;;;;;;3.10;2.80;;;;;;;12.55;41.78;98255.53;8257512;28;20198;-65
2021/04/02 07:24:39;;;;;;;3.30;2.63;;;;;;;12.86;41.77;98249.69;8268814;28;20728;-65
2021/04/02 07:28:45;;;;;;;4.20;2.53;;;;;;;12.86;41.68;98254.06;8269497;28;20661;-65
2021/04/02 07:32:47;;;;;;;2.70;2.50;;;;;;;12.80;41.73;98259.56;8269241;28;20232;-65
2021/04/02 07:36:49;;;;;;;6.03;3.20;;;;;;;12.89;41.85;98264.31;8269454;28;20201;-65
2021/04/02 07:40:51;;;;;;;3.50;3.20;;;;;;;13.19;41.29;98253.28;8269116;28;20205;-65
2021/04/02 07:44:55;;;;;;;3.60;2.97;;;;;;;13.06;41.35;98258.25;8268800;28;20233;-66
2021/04/02 07:49:01;;;;;;;3.20;2.90;;;;;;;13.02;41.14;98257.59;8265000;28;20203;-65
2021/04/02 07:53:03;;;;;;;3.70;2.50;;;;;;;13.22;41.05;98256.56;8259516;28;20206;-65
2021/04/02 07:57:08;;;;;;;3.07;2.87;;;;;;;12.83;41.62;98257.66;8269746;28;20274;-65
2021/04/02 08:01:10;;;;;;;3.10;2.87;;;;;;;12.64;41.63;98259.44;8267960;28;20230;-65
2021/04/02 08:05:14;;;;;;;3.00;2.80;;;;;;;12.66;42.58;98260.19;8241457;28;20238;-65
2021/04/02 08:09:16;;;;;;;5.57;3.80;;;;;;;12.91;42.14;98258.09;8236264;28;20510;-65
2021/04/02 08:13:18;;;;;;;3.40;3.10;;;;;;;12.80;41.89;98264.75;8235937;28;20577;-65
2021/04/02 08:17:26;;;;;;;3.13;2.70;;;;;;;12.60;42.41;98266.53;8235931;28;20211;-65
2021/04/02 08:21:28;;;;;;;4.23;3.00;;;;;;;12.58;42.42;98259.72;8235820;28;20212;-65
2021/04/02 08:25:34;;;;;;;3.10;2.90;;;;;;;12.62;42.37;98266.47;8235834;28;20713;-65
2021/04/02 08:29:37;;;;;;;2.80;2.60;;;;;;;12.65;42.15;98266.31;8245345;28;20202;-66
2021/04/02 08:33:40;;;;;;;3.17;2.90;;;;;;;12.61;42.07;98270.81;8246920;28;20210;-65
2021/04/02 08:37:56;;;;;;;3.40;3.10;;;;;;;12.52;42.27;98266.91;8235287;28;20207;-65
2021/04/02 08:42:01;;;;;;;2.93;2.73;;;;;;;12.65;41.81;98266.31;8257629;28;20199;-66
2021/04/02 08:46:03;;;;;;;3.00;2.80;;;;;;;12.38;42.27;98261.53;8267718;28;20540;-66
2021/04/02 08:50:08;;;;;;;4.03;2.80;;;;;;;12.62;42.18;98263.88;8267553;28;20217;-65
2021/04/02 08:54:13;;;;;;;3.77;3.03;;;;;;;12.69;42.18;98255.69;8266885;28;20210;-65
2021/04/02 08:58:15;;;;;;;3.00;2.70;;;;;;;12.91;41.36;98265.91;8266379;28;20523;-65
2021/04/02 09:02:17;;;;;;;3.47;3.13;;;;;;;12.93;42.24;98259.78;8268818;28;20222;-66
2021/04/02 09:06:20;;;;;;;3.90;3.33;;;;;;;12.44;43.38;98269.03;8266720;28;20197;-65
2021/04/02 09:10:28;;;;;;;3.30;3.00;;;;;;;12.60;42.99;98258.72;8266325;28;20225;-66
2021/04/02 09:14:31;;;;;;;3.30;3.03;;;;;;;12.59;43.05;98261.44;8266025;28;20553;-65
2021/04/02 09:18:33;;;;;;;7.47;3.07;;;;;;;12.33;43.35;98263.50;8266110;28;20210;-65
2021/04/02 09:22:36;;;;;;;3.33;3.03;;;;;;;12.24;43.22;98262.19;8265625;28;20261;-65
2021/04/02 09:26:39;;;;;;;3.10;2.90;;;;;;;12.61;42.43;98265.63;8265939;28;20253;-65
2021/04/02 09:30:41;;;;;;;3.00;2.77;;;;;;;12.74;42.54;98265.88;8265987;28;20217;-66
2021/04/02 09:34:42;;;;;;;3.20;2.67;;;;;;;12.64;42.76;98260.28;8265683;28;20228;-66
2021/04/02 09:38:46;;;;;;;2.80;2.60;;;;;;;12.78;42.23;98270.00;8265073;28;20542;-66
2021/04/02 09:42:49;;;;;;;2.70;2.50;;;;;;;12.45;43.28;98267.25;8265182;28;20592;-66
2021/04/02 09:46:52;;;;;;;3.50;2.60;;;;;;;12.79;42.43;98265.66;8265321;28;20626;-65
2021/04/02 09:50:54;;;;;;;3.80;2.63;;;;;;;12.71;42.65;98258.22;8264190;28;20213;-66
2021/04/02 09:54:56;;;;;;;2.80;2.60;;;;;;;12.61;42.73;98254.41;8263544;28;20225;-66
2021/04/02 09:58:58;;;;;;;2.47;2.27;;;;;;;12.66;42.89;98262.78;8254979;28;20528;-65
2021/04/02 10:03:00;;;;;;;2.40;2.20;;;;;;;12.71;42.62;98261.66;8264668;28;20634;-65
2021/04/02 10:07:02;;;;;;;2.70;2.50;;;;;;;12.73;42.57;98260.75;8264263;28;20562;-66
2021/04/02 10:11:04;;;;;;;2.60;2.40;;;;;;;12.74;42.56;98258.09;8264055;28;20217;-65
2021/04/02 10:15:07;;;;;;;2.60;2.40;;;;;;;12.73;42.90;98265.97;8253201;28;20199;-66
2021/04/02 10:19:09;;;;;;;2.40;2.20;;;;;;;12.95;42.63;98255.38;8248140;28;20195;-66
2021/04/02 10:23:11;;;;;;;2.67;2.47;;;;;;;12.89;42.76;98259.94;8253474;28;20291;-67
2021/04/02 10:27:15;;;;;;;5.00;2.37;;;;;;;12.55;43.52;98255.53;8247779;28;20380;-67
2021/04/02 10:31:17;;;;;;;3.60;2.60;;;;;;;12.76;43.57;98255.44;8247134;28;20278;-67
2021/04/02 10:35:19;;;;;;;3.30;3.00;;;;;;;12.91;43.50;98252.91;8248036;28;20210;-67
2021/04/02 10:39:20;;;;;;;6.07;3.37;;;;;;;12.75;43.73;98243.34;8263963;28;20531;-67
2021/04/02 10:43:23;;;;;;;4.40;4.00;;;;;;;12.79;43.41;98247.47;8249484;28;20222;-67
2021/04/02 10:47:25;;;;;;;4.27;3.93;;;;;;;12.61;43.42;98252.63;8232097;28;20508;-67
2021/04/02 10:51:31;;;;;;;4.60;4.20;;;;;;;12.58;43.15;98246.75;8231985;28;20316;-67
2021/04/02 10:55:33;;;;;;;4.10;3.80;;;;;;;13.00;42.33;98241.19;8231557;28;20206;-67
2021/04/02 10:59:36;;;;;;;4.30;3.90;;;;;;;12.62;42.75;98245.69;8256003;28;20260;-67
2021/04/02 11:03:38;;;;;;;4.27;3.40;;;;;;;12.98;42.21;98252.59;8260621;28;20222;-66
2021/04/02 11:07:41;;;;;;;3.80;3.50;;;;;;;12.84;42.90;98243.72;8238168;28;20222;-66
2021/04/02 11:11:43;;;;;;;3.93;3.63;;;;;;;13.14;41.67;98237.09;8250570;28;20217;-67
2021/04/02 11:15:45;;;;;;;5.13;3.60;;;;;;;13.20;41.35;98234.19;8263733;28;20206;-67
2021/04/02 11:19:47;;;;;;;4.00;3.70;;;;;;;13.18;41.50;98223.00;8247282;28;20218;-67
2021/04/02 11:23:49;;;;;;;4.60;3.73;;;;;;;13.36;41.50;98211.69;8248656;28;20682;-66
2021/04/02 11:27:51;;;;;;;7.70;3.83;;;;;;;13.43;41.07;98210.44;8262726;28;20206;-67
2021/04/02 11:31:54;;;;;;;9.30;3.67;;;;;;;14.25;45.78;98208.69;8263296;28;20212;-67
2021/04/02 11:35:56;;;;;;;5.17;3.40;;;;;;;14.92;43.75;98208.41;8261369;28;20213;-68
2021/04/02 11:39:57;;;;;;;10.07;3.20;;;;;;;15.39;42.58;98197.78;8267197;28;20237;-67
2021/04/02 11:43:59;;;;;;;4.10;3.10;;;;;;;15.57;41.13;98197.59;8264510;28;20225;-67
2021/04/02 11:48:02;;;;;;;3.97;3.23;;;;;;;15.56;39.29;98185.50;8245793;28;20213;-67
2021/04/02 11:52:04;;;;;;;3.20;2.90;;;;;;;15.69;39.96;98194.25;8268772;28;20206;-67
2021/04/02 11:56:06;;;;;;;5.07;3.70;;;;;;;15.94;38.61;98190.97;8268539;28;20241;-68
2021/04/02 12:00:11;;;;;;;6.80;2.60;;;;;;;16.16;38.56;98189.59;8268549;28;20206;-68
2021/04/02 12:04:15;;;;;;;5.43;3.00;;;;;;;16.07;36.67;98184.97;8275561;28;20311;-68
2021/04/02 12:08:17;;;;;;;11.07;3.07;;;;;;;15.95;37.95;98182.19;8300160;28;20649;-67
2021/04/02 12:12:20;;;;;;;10.60;2.60;;;;;;;16.08;38.92;98179.66;8299376;28;20197;-67
2021/04/02 12:16:21;;;;;;;5.03;2.53;;;;;;;16.07;37.98;98177.13;8299175;28;20699;-66
2021/04/02 12:20:24;;;;;;;14.07;2.97;;;;;;;16.17;38.62;98173.84;8297002;28;20209;-66
2021/04/02 12:24:26;;;;;;;6.00;2.53;;;;;;;16.53;37.70;98169.78;8283465;28;20272;-67
2021/04/02 12:28:28;;;;;;;3.87;2.27;;;;;;;16.70;36.48;98160.00;8267956;28;20198;-67
2021/04/02 12:32:30;;;;;;;3.63;2.10;;;;;;;16.64;36.58;98166.47;8289738;28;20288;-67
2021/04/02 12:36:32;;;;;;;5.90;2.03;;;;;;;16.73;36.14;98155.38;8297346;28;20232;-68
2021/04/02 12:40:35;;;;;;;3.67;1.77;;;;;;;17.41;34.76;98150.03;8296420;28;20213;-67
2021/04/02 12:44:37;;;;;;;7.90;2.37;;;;;;;17.31;35.75;98145.41;8292457;28;20588;-67
2021/04/02 12:48:39;;;;;;;4.80;1.70;;;;;;;17.24;33.90;98133.69;8293246;28;20201;-68
2021/04/02 12:52:44;;;;;;;2.07;1.90;;;;;;;17.47;32.27;98129.47;8297079;28;20215;-66
2021/04/02 12:56:46;;;;;;;32.23;2.73;;;;;;;16.76;33.07;98121.19;8293505;28;20216;-66
2021/04/02 13:00:48;;;;;;;33.20;2.93;;;;;;;16.21;35.48;98119.63;8286953;28;20517;-66
2021/04/02 13:04:49;;;;;;;2.27;1.73;;;;;;;16.56;33.31;98108.63;8298201;28;20396;-67
2021/04/02 13:08:53;;;;;;;2.03;1.80;;;;;;;17.53;31.09;98107.25;8298150;28;20209;-66
2021/04/02 13:12:56;;;;;;;3.00;2.03;;;;;;;16.66;32.18;98101.84;8298443;28;20259;-67
2021/04/02 13:16:58;;;;;;;3.27;2.57;;;;;;;16.38;33.35;98095.84;8295681;28;20579;-67
2021/04/02 13:20:59;;;;;;;2.95;2.25;;;;;;;15.81;33.92;98094.28;8291488;28;20904;-67
2021/04/02 13:25:03;;;;;;;4.00;2.40;;;;;;;15.69;34.73;98091.56;8296772;28;20245;-67
2021/04/02 13:29:05;;;;;;;5.37;2.40;;;;;;;15.74;34.90;98092.16;8298526;28;20209;-66
2021/04/02 13:33:07;;;;;;;22.07;2.73;;;;;;;15.29;35.18;98088.84;8297812;28;20244;-66
2021/04/02 13:37:11;;;;;;;4.73;2.33;;;;;;;15.17;36.34;98086.06;8297623;28;20198;-66
2021/04/02 13:41:14;;;;;;;20.23;2.30;;;;;;;16.31;34.78;98084.09;8546535;22;20287;-66
2021/04/02 13:45:17;;;;;;;2.40;2.20;;;;;;;17.16;32.98;98067.97;8262804;28;20705;-66
2021/04/02 13:49:19;;;;;;;2.63;2.20;;;;;;;17.06;32.36;98066.91;8697320;22;20236;-81
2021/04/02 13:53:21;;;;;;;2.90;2.13;;;;;;;17.04;32.34;98056.59;8276114;28;20228;-80
2021/04/02 13:57:24;;;;;;;3.07;2.20;;;;;;;17.05;32.32;98045.16;8277416;28;20202;-80
2021/04/02 14:01:26;;;;;;;2.07;1.90;;;;;;;16.89;33.10;98041.94;8285342;28;20228;-79
2021/04/02 14:05:28;;;;;;;5.70;2.30;;;;;;;17.34;32.59;98043.13;8311186;28;20225;-80
2021/04/02 14:09:31;;;;;;;13.60;2.20;;;;;;;17.39;31.60;98038.38;8308252;28;20209;-80
2021/04/02 14:13:33;;;;;;;7.17;1.80;;;;;;;16.65;32.24;98026.94;8308874;28;20213;-79
2021/04/02 14:17:35;;;;;;;4.03;1.77;;;;;;;16.71;32.92;98030.94;8307059;28;20224;-79
2021/04/02 14:21:37;;;;;;;2.57;1.80;;;;;;;16.61;32.54;98036.78;8306327;28;20216;-79
2021/04/02 14:25:40;;;;;;;3.30;1.80;;;;;;;16.38;33.06;98042.72;8307819;28;20689;-79
2021/04/02 14:29:43;;;;;;;4.43;1.90;;;;;;;16.02;33.47;98036.38;8307695;28;20204;-81
2021/04/02 14:33:45;;;;;;;2.17;1.97;;;;;;;16.02;33.57;98036.38;8307522;28;20205;-81
2021/04/02 14:37:48;;;;;;;2.13;1.83;;;;;;;16.27;33.55;98040.00;8305420;28;20220;-82
2021/04/02 14:41:51;;;;;;;2.20;2.00;;;;;;;16.96;32.42;98040.56;8305200;28;20278;-82
2021/04/02 14:45:55;;;;;;;2.60;2.40;;;;;;;16.65;32.63;98031.34;8303962;28;20225;-83
2021/04/02 14:49:57;;;;;;;6.43;5.83;;;;;;;15.99;33.40;98034.81;8320817;28;20275;-83
2021/04/02 14:53:59;;;;;;;11.23;8.70;;;;;;;15.69;34.10;98032.38;8336761;28;20564;-80
2021/04/02 14:58:01;;;;;;;2.87;2.60;;;;;;;15.51;34.46;98029.16;8338228;28;20539;-81
2021/04/02 15:02:04;;;;;;;2.30;2.10;;;;;;;15.46;34.34;98028.63;8337588;28;20193;-80
2021/04/02 15:06:06;;;;;;;2.43;2.00;;;;;;;15.22;35.12;98020.56;8330181;28;20220;-81
2021/04/02 15:10:13;;;;;;;3.73;2.40;;;;;;;15.93;34.45;98008.25;8337151;28;20573;-80
2021/04/02 15:14:14;;;;;;;2.80;2.60;;;;;;;15.67;33.89;98002.94;8338015;28;20196;-80
2021/04/02 15:18:17;;;;;;;2.93;2.73;;;;;;;16.31;33.23;98008.31;8340238;28;20201;-79
2021/04/02 15:22:19;;;;;;;4.30;3.90;;;;;;;15.80;33.35;98001.22;8342088;28;20205;-80
2021/04/02 15:26:21;;;;;;;7.03;4.27;;;;;;;15.91;32.48;97994.47;8344776;28;20228;-80
2021/04/02 15:30:24;;;;;;;3.67;3.37;;;;;;;15.81;33.52;98005.50;8344499;28;20200;-80
2021/04/02 15:34:27;;;;;;;3.67;2.93;;;;;;;16.37;33.09;98004.44;8344743;28;20216;-80
2021/04/02 15:38:29;;;;;;;2.97;2.70;;;;;;;16.31;32.39;97997.88;8345355;28;20577;-80
2021/04/02 15:42:32;;;;;;;5.80;4.17;;;;;;;16.18;32.47;98007.47;8346019;28;20668;-80
2021/04/02 15:46:34;;;;;;;4.37;4.00;;;;;;;16.13;32.04;97996.50;8346307;28;20220;-80
2021/04/02 15:50:37;;;;;;;4.90;4.50;;;;;;;16.02;32.52;97999.81;8347649;28;20297;-80
2021/04/02 15:54:40;;;;;;;5.90;4.57;;;;;;;15.97;32.37;98001.88;8345036;28;20216;-80
2021/04/02 15:58:43;;;;;;;4.73;4.30;;;;;;;15.69;33.75;98027.16;8361936;28;20188;-81
2021/04/02 16:02:46;;;;;;;4.70;4.30;;;;;;;15.75;33.55;98025.97;8350706;28;20553;-80
2021/04/02 16:06:49;;;;;;;4.80;4.40;;;;;;;15.73;33.49;98027.81;8338525;28;20243;-80
2021/04/02 16:10:50;;;;;;;5.87;4.80;;;;;;;15.52;33.77;98012.56;8344204;28;20200;-80
2021/04/02 16:14:53;;;;;;;5.00;4.60;;;;;;;15.66;34.13;98013.47;8340239;28;20217;-80
2021/04/02 16:18:54;;;;;;;5.97;3.90;;;;;;;15.63;33.63;98009.25;8332315;28;20193;-80
2021/04/02 16:22:58;;;;;;;4.43;4.03;;;;;;;15.33;33.96;97996.41;8344875;28;20201;-80
2021/04/02 16:27:05;;;;;;;4.80;4.40;;;;;;;15.13;34.52;97990.66;8334069;28;20204;-80
2021/04/02 16:31:07;;;;;;;5.03;4.63;;;;;;;15.26;34.98;98001.16;8342766;28;20217;-79
2021/04/02 16:35:10;;;;;;;5.17;4.17;;;;;;;14.96;34.08;98004.75;8322789;28;20209;-79
2021/04/02 16:39:13;;;;;;;5.10;3.80;;;;;;;14.86;34.12;98006.25;8333107;28;20220;-80
2021/04/02 16:43:15;;;;;;;5.10;3.50;;;;;;;14.76;34.33;98010.34;8341439;28;20212;-80
2021/04/02 16:47:18;;;;;;;5.17;4.07;;;;;;;14.65;34.64;98011.81;8312881;28;20538;-80
2021/04/02 16:51:19;;;;;;;4.33;3.93;;;;;;;14.63;34.67;98008.47;8315405;28;20247;-80
2021/04/02 16:55:23;;;;;;;4.40;3.80;;;;;;;14.35;35.11;97998.00;8357126;28;20207;-79
2021/04/02 16:59:25;;;;;;;4.37;3.97;;;;;;;14.41;35.58;98001.09;8356998;28;20226;-79
2021/04/02 17:03:27;;;;;;;4.30;3.90;;;;;;;14.51;35.30;98003.97;8355338;28;20223;-79
2021/04/02 17:07:28;;;;;;;4.20;3.80;;;;;;;14.58;35.59;97997.50;8343869;28;20205;-80
2021/04/02 17:11:32;;;;;;;4.47;4.07;;;;;;;14.60;35.51;98000.00;8343173;28;20238;-79
2021/04/02 17:15:34;;;;;;;5.10;4.60;;;;;;;14.59;35.46;97996.56;8342712;28;20212;-80
2021/04/02 17:19:36;;;;;;;5.53;5.03;;;;;;;14.61;35.50;97999.09;8342384;28;20211;-79
2021/04/02 17:23:38;;;;;;;8.03;6.63;;;;;;;14.58;35.87;97987.09;8342940;28;20707;-79
2021/04/02 17:27:42;;;;;;;5.63;4.20;;;;;;;14.46;36.05;97987.78;8335195;28;20275;-82
2021/04/02 17:31:44;;;;;;;4.80;4.40;;;;;;;14.49;36.29;97985.00;8322276;28;20197;-82
2021/04/02 17:35:46;;;;;;;5.30;4.90;;;;;;;14.28;36.55;97982.75;8331354;28;20582;-80
2021/04/02 17:39:48;;;;;;;4.83;3.77;;;;;;;14.28;36.75;97985.34;8324091;28;20220;-82
2021/04/02 17:43:51;;;;;;;5.83;5.27;;;;;;;14.25;37.51;97990.72;8341288;28;20703;-83
2021/04/02 17:47:54;;;;;;;4.30;3.90;;;;;;;14.08;37.88;97994.31;8328774;28;20250;-82
2021/04/02 17:52:04;;;;;;;4.33;3.93;;;;;;;13.94;38.03;98006.47;8322938;28;20236;-84
2021/04/02 17:56:06;;;;;;;5.90;3.90;;;;;;;13.84;38.33;98012.19;8334902;28;20567;-84
2021/04/02 18:00:12;;;;;;;5.43;4.13;;;;;;;13.82;38.37;98031.41;8328631;28;20193;-84
2021/04/02 18:04:14;;;;;;;7.20;6.60;;;;;;;13.42;38.57;98012.81;8318220;28;20231;-83
2021/04/02 18:08:17;;;;;;;4.50;3.43;;;;;;;13.06;38.55;98032.91;8321604;28;20390;-84
2021/04/02 18:12:19;;;;;;;3.20;2.90;;;;;;;13.19;37.59;98051.28;8336936;28;20200;-84
2021/04/02 18:16:22;;;;;;;3.80;2.60;;;;;;;12.88;36.99;98054.69;8307325;28;20197;-84
2021/04/02 18:20:25;;;;;;;2.67;2.47;;;;;;;13.05;36.29;98041.63;8308648;28;20204;-84
2021/04/02 18:24:30;;;;;;;7.03;3.20;;;;;;;13.96;43.52;98069.72;8336949;28;20235;-85
2021/04/02 18:28:32;;;;;;;3.53;2.20;;;;;;;14.14;36.89;98066.03;8325180;28;20213;-85
2021/04/02 18:32:37;;;;;;;2.50;2.30;;;;;;;14.18;35.05;98058.88;8327885;28;20201;-85
2021/04/02 18:36:39;;;;;;;2.23;1.70;;;;;;;14.36;33.96;98070.84;8326498;28;20221;-85
2021/04/02 18:40:42;;;;;;;4.43;1.67;;;;;;;13.70;33.48;98061.56;8340029;28;20204;-84
2021/04/02 18:44:44;;;;;;;3.73;2.20;;;;;;;13.51;33.19;98056.53;8343431;28;20228;-84
2021/04/02 18:48:47;;;;;;;2.50;2.30;;;;;;;13.37;33.15;98061.69;8364342;28;20242;-83
2021/04/02 18:52:49;;;;;;;2.30;2.10;;;;;;;13.27;33.64;98051.72;8374841;28;20169;-81
2021/04/02 18:56:52;;;;;;;1.90;1.70;;;;;;;12.97;33.93;98055.97;8374407;28;20198;-82
2021/04/02 19:00:54;;;;;;;2.23;2.03;;;;;;;12.89;34.13;98064.16;8369768;28;20196;-81